createdAt,value
2023-01-07T00:06:01.771Z,7.70
2023-01-07T00:16:01.908Z,8.80
2023-01-07T00:26:02.108Z,7.50
2023-01-07T00:36:02.168Z,8.20
2023-01-07T00:46:02.598Z,9.50
2023-01-07T00:56:02.647Z,8.80
2023-01-07T01:06:03.039Z,8.10
2023-01-07T01:16:03.100Z,8.10
2023-01-07T01:26:03.412Z,8.60
2023-01-07T01:36:03.454Z,8.00
2023-01-07T01:46:05.726Z,7.90
2023-01-07T01:56:03.771Z,7.60
2023-01-07T02:06:05.478Z,6.80
2023-01-07T02:16:04.200Z,7.10
2023-01-07T02:26:06.700Z,6.60
2023-01-07T02:36:04.338Z,5.60
2023-01-07T02:46:04.858Z,6.10
2023-01-07T02:56:04.747Z,5.80
2023-01-07T03:06:05.066Z,5.60
2023-01-07T03:16:05.078Z,5.90
2023-01-07T03:26:05.329Z,4.60
2023-01-07T03:36:05.416Z,5.60
2023-01-07T03:46:05.742Z,4.60
2023-01-07T03:56:05.616Z,5.50
2023-01-07T04:06:06.063Z,5.00
2023-01-07T04:16:06.123Z,5.60
2023-01-07T04:26:06.366Z,4.70
2023-01-07T04:36:06.391Z,4.20
2023-01-07T04:46:06.786Z,4.10
2023-01-07T04:56:06.896Z,5.30
2023-01-07T05:06:07.369Z,5.40
2023-01-07T05:16:07.408Z,4.00
2023-01-07T05:26:09.818Z,3.20
2023-01-07T05:36:07.846Z,2.80
2023-01-07T05:46:08.262Z,3.50
2023-01-07T05:56:08.345Z,2.90
2023-01-07T06:06:08.800Z,3.90
2023-01-07T06:16:08.902Z,3.00
2023-01-07T06:26:09.088Z,8.60
2023-01-07T06:36:11.553Z,4.50
2023-01-07T06:46:10.421Z,13.40
2023-01-07T06:56:09.514Z,5.30
2023-01-07T07:06:09.813Z,6.20
2023-01-07T07:16:09.903Z,4.80
2023-01-07T07:26:09.968Z,7.00
2023-01-07T07:36:10.015Z,9.70
2023-01-07T07:46:10.379Z,13.10
2023-01-07T07:56:10.417Z,12.10
2023-01-07T08:06:10.706Z,11.20
2023-01-07T08:16:10.807Z,9.40
2023-01-07T08:26:12.006Z,14.00
2023-01-07T08:36:22.170Z,13.50
2023-01-07T08:46:12.166Z,20.10
2023-01-07T08:56:11.437Z,17.80
2023-01-07T09:06:11.677Z,10.70
2023-01-07T09:16:12.025Z,12.80
2023-01-07T09:26:12.066Z,11.50
2023-01-07T09:36:12.384Z,10.70
2023-01-07T09:46:12.479Z,8.50
2023-01-07T09:56:13.585Z,7.90
2023-01-07T10:06:12.596Z,6.20
2023-01-07T10:16:12.961Z,7.70
2023-01-07T10:26:13.036Z,5.60
2023-01-07T10:36:13.281Z,5.80
2023-01-07T10:46:13.598Z,5.70
2023-01-07T10:56:16.033Z,5.80
2023-01-07T11:06:13.871Z,7.40
2023-01-07T11:16:14.160Z,9.80
2023-01-07T11:26:14.196Z,10.40
2023-01-07T11:36:14.513Z,12.70
2023-01-07T11:46:19.359Z,10.70
2023-01-07T11:56:15.833Z,7.20
2023-01-07T12:06:15.140Z,6.90
2023-01-07T12:16:15.239Z,7.40
2023-01-07T12:26:15.309Z,6.60
2023-01-07T12:36:15.549Z,7.20
2023-01-07T12:46:15.866Z,6.40
2023-01-07T12:56:15.957Z,7.10
2023-01-07T13:06:16.226Z,7.30
2023-01-07T13:16:16.531Z,6.20
2023-01-07T13:26:16.635Z,7.00
2023-01-07T13:36:17.036Z,7.10
2023-01-07T13:46:16.955Z,6.30
2023-01-07T13:56:17.068Z,6.10
2023-01-07T14:06:17.373Z,6.10
2023-01-07T14:16:17.475Z,6.40
2023-01-07T14:26:17.844Z,6.90
2023-01-07T14:36:17.675Z,7.70
2023-01-07T14:46:19.303Z,7.30
2023-01-07T14:56:18.045Z,7.70
2023-01-07T15:06:18.389Z,8.10
2023-01-07T15:16:18.435Z,8.60
2023-01-07T15:26:18.543Z,11.40
2023-01-07T15:36:18.694Z,8.90
2023-01-07T15:46:18.928Z,7.90
2023-01-07T15:56:20.094Z,8.30
2023-01-07T16:06:19.408Z,7.70
2023-01-07T16:16:19.193Z,13.70
2023-01-07T16:26:19.242Z,10.80
2023-01-07T16:36:19.461Z,37.30
2023-01-07T16:46:19.790Z,18.00
2023-01-07T16:56:19.819Z,11.00
2023-01-07T17:06:20.089Z,13.80
2023-01-07T17:16:20.183Z,14.90
2023-01-07T17:26:20.265Z,24.50
2023-01-07T17:36:20.526Z,22.90
2023-01-07T17:46:20.921Z,25.30
2023-01-07T17:56:21.009Z,15.80
2023-01-07T18:06:24.008Z,14.20
2023-01-07T18:16:21.427Z,12.00
2023-01-07T18:26:21.575Z,9.60
2023-01-07T18:36:21.637Z,10.70
2023-01-07T18:46:26.959Z,11.70
2023-01-07T18:56:22.009Z,12.10
2023-01-07T19:06:22.300Z,11.50
2023-01-07T19:16:22.431Z,10.10
2023-01-07T19:26:25.240Z,9.10
2023-01-07T19:36:22.687Z,8.90
2023-01-07T19:46:22.948Z,9.60
2023-01-07T19:56:23.188Z,11.20
2023-01-07T20:06:23.537Z,10.10
2023-01-07T20:16:23.687Z,9.10
2023-01-07T20:26:23.827Z,9.50
2023-01-07T20:36:23.881Z,8.20
2023-01-07T20:46:24.182Z,9.00
2023-01-07T20:56:24.196Z,8.80
2023-01-07T21:06:25.459Z,9.80
2023-01-07T21:16:24.730Z,9.90
2023-01-07T21:26:25.015Z,14.60
2023-01-07T21:36:25.064Z,10.30
2023-01-07T21:46:25.381Z,17.60
2023-01-07T21:56:25.447Z,14.20
2023-01-07T22:06:25.606Z,12.90
2023-01-07T22:16:25.778Z,13.50
2023-01-07T22:26:25.921Z,12.30
2023-01-07T22:36:25.967Z,12.00
2023-01-07T22:46:26.299Z,15.90
2023-01-07T22:56:26.329Z,13.90
2023-01-07T23:06:26.670Z,15.00
2023-01-07T23:16:26.783Z,13.70
2023-01-07T23:26:26.924Z,10.70
2023-01-07T23:36:26.967Z,8.80
2023-01-07T23:46:27.296Z,10.40
2023-01-07T23:56:27.341Z,12.10
